sensor_id;sensor_type;location;lat;lon;timestamp;temperature;humidity
22742;DHT22;11538;48.884;8.696;2022-12-18T00:01:16;-5.20;99.90
22742;DHT22;11538;48.884;8.696;2022-12-18T00:03:48;-5.20;99.90
22742;DHT22;11538;48.884;8.696;2022-12-18T00:06:16;-5.30;99.90
22742;DHT22;11538;48.884;8.696;2022-12-18T00:08:43;-5.30;99.90
22742;DHT22;11538;48.884;8.696;2022-12-18T00:11:12;-5.30;99.90
22742;DHT22;11538;48.884;8.696;2022-12-18T00:13:40;-5.30;99.90
22742;DHT22;11538;48.884;8.696;2022-12-18T00:16:10;-5.30;99.90
22742;DHT22;11538;48.884;8.696;2022-12-18T00:18:38;-5.30;99.90
22742;DHT22;11538;48.884;8.696;2022-12-18T00:21:07;-5.40;99.90
22742;DHT22;11538;48.884;8.696;2022-12-18T00:23:36;-5.40;99.90
22742;DHT22;11538;48.884;8.696;2022-12-18T00:26:05;-5.40;99.90
22742;DHT22;11538;48.884;8.696;2022-12-18T00:28:34;-5.40;99.90
22742;DHT22;11538;48.884;8.696;2022-12-18T00:33:29;-5.50;99.90
22742;DHT22;11538;48.884;8.696;2022-12-18T00:36:02;-5.40;99.90
22742;DHT22;11538;48.884;8.696;2022-12-18T00:38:35;-5.40;99.90
22742;DHT22;11538;48.884;8.696;2022-12-18T00:41:03;-5.40;99.90
22742;DHT22;11538;48.884;8.696;2022-12-18T00:43:34;-5.40;99.90
22742;DHT22;11538;48.884;8.696;2022-12-18T00:46:01;-5.40;99.90
22742;DHT22;11538;48.884;8.696;2022-12-18T00:48:29;-5.30;99.90
22742;DHT22;11538;48.884;8.696;2022-12-18T00:50:55;-5.30;99.90
22742;DHT22;11538;48.884;8.696;2022-12-18T00:53:22;-5.30;99.90
22742;DHT22;11538;48.884;8.696;2022-12-18T00:55:49;-5.40;99.90
22742;DHT22;11538;48.884;8.696;2022-12-18T00:58:16;-5.40;99.90
22742;DHT22;11538;48.884;8.696;2022-12-18T01:00:43;-5.40;99.90
22742;DHT22;11538;48.884;8.696;2022-12-18T01:03:12;-5.40;99.90
22742;DHT22;11538;48.884;8.696;2022-12-18T01:05:41;-5.50;99.90
22742;DHT22;11538;48.884;8.696;2022-12-18T01:08:09;-5.40;99.90
22742;DHT22;11538;48.884;8.696;2022-12-18T01:10:36;-5.40;99.90
22742;DHT22;11538;48.884;8.696;2022-12-18T01:13:02;-5.40;99.90
22742;DHT22;11538;48.884;8.696;2022-12-18T01:15:29;-5.40;99.90
22742;DHT22;11538;48.884;8.696;2022-12-18T01:17:56;-5.40;99.90
22742;DHT22;11538;48.884;8.696;2022-12-18T01:20:23;-5.50;99.90
22742;DHT22;11538;48.884;8.696;2022-12-18T01:22:50;-5.50;99.90
22742;DHT22;11538;48.884;8.696;2022-12-18T01:25:16;-5.60;99.90
22742;DHT22;11538;48.884;8.696;2022-12-18T01:27:43;-5.60;99.90
22742;DHT22;11538;48.884;8.696;2022-12-18T01:30:10;-5.60;99.90
22742;DHT22;11538;48.884;8.696;2022-12-18T01:32:37;-5.60;99.90
22742;DHT22;11538;48.884;8.696;2022-12-18T01:35:04;-5.70;99.90
22742;DHT22;11538;48.884;8.696;2022-12-18T01:37:31;-5.70;99.90
22742;DHT22;11538;48.884;8.696;2022-12-18T01:39:58;-5.70;99.90
22742;DHT22;11538;48.884;8.696;2022-12-18T01:42:25;-5.70;99.90
22742;DHT22;11538;48.884;8.696;2022-12-18T01:47:30;-5.70;99.90
22742;DHT22;11538;48.884;8.696;2022-12-18T01:52:39;-5.60;99.90
22742;DHT22;11538;48.884;8.696;2022-12-18T01:55:09;-5.60;99.90
22742;DHT22;11538;48.884;8.696;2022-12-18T01:57:37;-5.60;99.90
22742;DHT22;11538;48.884;8.696;2022-12-18T02:00:07;-5.60;99.90
22742;DHT22;11538;48.884;8.696;2022-12-18T02:02:43;-5.50;99.90
22742;DHT22;11538;48.884;8.696;2022-12-18T02:05:12;-5.50;99.90
22742;DHT22;11538;48.884;8.696;2022-12-18T02:13:27;-5.50;99.90
22742;DHT22;11538;48.884;8.696;2022-12-18T02:18:38;-5.50;99.90
22742;DHT22;11538;48.884;8.696;2022-12-18T02:27:03;-5.50;99.90
22742;DHT22;11538;48.884;8.696;2022-12-18T02:29:35;-5.50;99.90
22742;DHT22;11538;48.884;8.696;2022-12-18T02:32:08;-5.50;99.90
22742;DHT22;11538;48.884;8.696;2022-12-18T02:34:44;-5.50;99.90
22742;DHT22;11538;48.884;8.696;2022-12-18T02:37:14;-5.40;99.90
22742;DHT22;11538;48.884;8.696;2022-12-18T02:39:44;-5.40;99.90
22742;DHT22;11538;48.884;8.696;2022-12-18T02:42:15;-5.30;99.90
22742;DHT22;11538;48.884;8.696;2022-12-18T02:44:48;-5.30;99.90
22742;DHT22;11538;48.884;8.696;2022-12-18T02:47:17;-5.30;99.90
22742;DHT22;11538;48.884;8.696;2022-12-18T02:52:37;-5.30;99.90
22742;DHT22;11538;48.884;8.696;2022-12-18T02:58:17;-5.30;99.90
22742;DHT22;11538;48.884;8.696;2022-12-18T03:03:27;-5.40;99.90
22742;DHT22;11538;48.884;8.696;2022-12-18T03:06:20;-5.30;99.90
22742;DHT22;11538;48.884;8.696;2022-12-18T03:08:54;-5.30;99.90
22742;DHT22;11538;48.884;8.696;2022-12-18T03:11:25;-5.30;99.90
22742;DHT22;11538;48.884;8.696;2022-12-18T03:14:13;-5.20;99.90
22742;DHT22;11538;48.884;8.696;2022-12-18T03:16:43;-5.20;99.90
22742;DHT22;11538;48.884;8.696;2022-12-18T03:19:14;-5.20;99.90
22742;DHT22;11538;48.884;8.696;2022-12-18T03:21:45;-5.20;99.90
22742;DHT22;11538;48.884;8.696;2022-12-18T03:24:16;-5.20;99.90
22742;DHT22;11538;48.884;8.696;2022-12-18T03:26:46;-5.20;99.90
22742;DHT22;11538;48.884;8.696;2022-12-18T03:29:17;-5.20;99.90
22742;DHT22;11538;48.884;8.696;2022-12-18T03:31:49;-5.20;99.90
22742;DHT22;11538;48.884;8.696;2022-12-18T03:34:23;-5.20;99.90
22742;DHT22;11538;48.884;8.696;2022-12-18T03:36:55;-5.20;99.90
22742;DHT22;11538;48.884;8.696;2022-12-18T03:39:22;-5.20;99.90
22742;DHT22;11538;48.884;8.696;2022-12-18T03:41:57;-5.20;99.90
22742;DHT22;11538;48.884;8.696;2022-12-18T03:44:33;-5.30;99.90
22742;DHT22;11538;48.884;8.696;2022-12-18T03:47:11;-5.30;99.90
22742;DHT22;11538;48.884;8.696;2022-12-18T03:55:14;-5.30;99.90
22742;DHT22;11538;48.884;8.696;2022-12-18T03:57:43;-5.30;99.90
22742;DHT22;11538;48.884;8.696;2022-12-18T04:00:15;-5.30;1.00
22742;DHT22;11538;48.884;8.696;2022-12-18T04:02:49;-5.40;99.90
22742;DHT22;11538;48.884;8.696;2022-12-18T04:05:19;-5.40;99.90
22742;DHT22;11538;48.884;8.696;2022-12-18T04:07:47;-5.40;99.90
22742;DHT22;11538;48.884;8.696;2022-12-18T04:10:16;-5.50;99.90
22742;DHT22;11538;48.884;8.696;2022-12-18T04:12:44;-5.50;99.90
22742;DHT22;11538;48.884;8.696;2022-12-18T04:15:11;-5.50;99.90
22742;DHT22;11538;48.884;8.696;2022-12-18T04:17:39;-5.50;99.90
22742;DHT22;11538;48.884;8.696;2022-12-18T04:20:16;-5.50;99.90
22742;DHT22;11538;48.884;8.696;2022-12-18T04:22:43;-5.50;99.90
22742;DHT22;11538;48.884;8.696;2022-12-18T04:25:10;-5.50;99.90
22742;DHT22;11538;48.884;8.696;2022-12-18T04:27:38;-5.50;99.90
22742;DHT22;11538;48.884;8.696;2022-12-18T04:30:05;-5.50;99.90
22742;DHT22;11538;48.884;8.696;2022-12-18T04:32:33;-5.50;99.90
22742;DHT22;11538;48.884;8.696;2022-12-18T04:35:00;-5.50;99.90
22742;DHT22;11538;48.884;8.696;2022-12-18T04:37:28;-5.50;99.90
22742;DHT22;11538;48.884;8.696;2022-12-18T04:39:55;-5.40;99.90
22742;DHT22;11538;48.884;8.696;2022-12-18T04:42:21;-5.50;99.90
22742;DHT22;11538;48.884;8.696;2022-12-18T04:44:48;-5.50;99.90
22742;DHT22;11538;48.884;8.696;2022-12-18T04:47:15;-5.50;99.90
22742;DHT22;11538;48.884;8.696;2022-12-18T04:49:42;-5.40;99.90
22742;DHT22;11538;48.884;8.696;2022-12-18T04:52:08;-5.50;99.90
22742;DHT22;11538;48.884;8.696;2022-12-18T04:54:35;-5.50;99.90
22742;DHT22;11538;48.884;8.696;2022-12-18T04:57:02;-5.50;99.90
22742;DHT22;11538;48.884;8.696;2022-12-18T04:59:29;-5.50;99.90
22742;DHT22;11538;48.884;8.696;2022-12-18T05:01:55;-5.50;99.90
22742;DHT22;11538;48.884;8.696;2022-12-18T05:04:22;-5.50;99.90
22742;DHT22;11538;48.884;8.696;2022-12-18T05:06:49;-5.50;99.90
22742;DHT22;11538;48.884;8.696;2022-12-18T05:09:16;-5.50;99.90
22742;DHT22;11538;48.884;8.696;2022-12-18T05:11:44;-5.50;99.90
22742;DHT22;11538;48.884;8.696;2022-12-18T05:14:13;-5.50;99.90
22742;DHT22;11538;48.884;8.696;2022-12-18T05:16:39;-5.50;99.90
22742;DHT22;11538;48.884;8.696;2022-12-18T05:19:06;-5.50;99.90
22742;DHT22;11538;48.884;8.696;2022-12-18T05:21:33;-5.40;99.90
22742;DHT22;11538;48.884;8.696;2022-12-18T05:24:00;-5.40;99.90
22742;DHT22;11538;48.884;8.696;2022-12-18T05:26:26;-5.40;99.90
22742;DHT22;11538;48.884;8.696;2022-12-18T05:28:53;-5.40;99.90
22742;DHT22;11538;48.884;8.696;2022-12-18T05:31:20;-5.40;99.90
22742;DHT22;11538;48.884;8.696;2022-12-18T05:33:47;-5.40;99.90
22742;DHT22;11538;48.884;8.696;2022-12-18T05:36:13;-5.40;99.90
22742;DHT22;11538;48.884;8.696;2022-12-18T05:38:40;-5.40;99.90
22742;DHT22;11538;48.884;8.696;2022-12-18T05:41:07;-5.40;99.90
22742;DHT22;11538;48.884;8.696;2022-12-18T05:43:36;-5.50;99.90
22742;DHT22;11538;48.884;8.696;2022-12-18T05:46:08;-5.50;99.90
22742;DHT22;11538;48.884;8.696;2022-12-18T05:48:38;-5.50;99.90
22742;DHT22;11538;48.884;8.696;2022-12-18T05:51:09;-5.50;99.90
22742;DHT22;11538;48.884;8.696;2022-12-18T05:53:38;-5.60;99.90
22742;DHT22;11538;48.884;8.696;2022-12-18T05:56:07;-5.60;99.90
22742;DHT22;11538;48.884;8.696;2022-12-18T05:58:39;-5.60;99.90
22742;DHT22;11538;48.884;8.696;2022-12-18T06:01:07;-5.60;99.90
22742;DHT22;11538;48.884;8.696;2022-12-18T06:03:37;-5.60;99.90
22742;DHT22;11538;48.884;8.696;2022-12-18T06:06:39;-5.60;99.90
22742;DHT22;11538;48.884;8.696;2022-12-18T06:08:59;-5.60;99.90
22742;DHT22;11538;48.884;8.696;2022-12-18T06:11:27;-5.60;99.90
22742;DHT22;11538;48.884;8.696;2022-12-18T06:13:55;-5.60;99.90
22742;DHT22;11538;48.884;8.696;2022-12-18T06:16:25;-5.60;99.90
22742;DHT22;11538;48.884;8.696;2022-12-18T06:18:52;-5.60;99.90
22742;DHT22;11538;48.884;8.696;2022-12-18T06:21:20;-5.70;99.90
22742;DHT22;11538;48.884;8.696;2022-12-18T06:23:46;-5.60;99.90
22742;DHT22;11538;48.884;8.696;2022-12-18T06:26:13;-5.60;99.90
22742;DHT22;11538;48.884;8.696;2022-12-18T06:28:40;-5.60;99.90
22742;DHT22;11538;48.884;8.696;2022-12-18T06:31:07;-5.60;99.90
22742;DHT22;11538;48.884;8.696;2022-12-18T06:33:35;-5.60;99.90
22742;DHT22;11538;48.884;8.696;2022-12-18T06:36:08;-5.60;99.90
22742;DHT22;11538;48.884;8.696;2022-12-18T06:38:38;-5.60;99.90
22742;DHT22;11538;48.884;8.696;2022-12-18T06:41:08;-5.60;99.90
22742;DHT22;11538;48.884;8.696;2022-12-18T06:43:35;-5.50;99.90
22742;DHT22;11538;48.884;8.696;2022-12-18T06:46:04;-5.50;99.90
22742;DHT22;11538;48.884;8.696;2022-12-18T06:48:32;-5.50;99.90
22742;DHT22;11538;48.884;8.696;2022-12-18T06:50:59;-5.40;99.90
22742;DHT22;11538;48.884;8.696;2022-12-18T06:53:26;-5.40;99.90
22742;DHT22;11538;48.884;8.696;2022-12-18T06:55:59;-5.30;99.90
22742;DHT22;11538;48.884;8.696;2022-12-18T06:58:34;-5.30;99.90
22742;DHT22;11538;48.884;8.696;2022-12-18T07:01:02;-5.20;99.90
22742;DHT22;11538;48.884;8.696;2022-12-18T07:03:31;-5.20;99.90
22742;DHT22;11538;48.884;8.696;2022-12-18T07:05:57;-5.20;99.90
22742;DHT22;11538;48.884;8.696;2022-12-18T07:08:24;-5.20;99.90
22742;DHT22;11538;48.884;8.696;2022-12-18T07:10:51;-5.20;99.90
22742;DHT22;11538;48.884;8.696;2022-12-18T07:13:22;-5.20;99.90
22742;DHT22;11538;48.884;8.696;2022-12-18T07:15:49;-5.20;99.90
22742;DHT22;11538;48.884;8.696;2022-12-18T07:18:16;-5.30;99.90
22742;DHT22;11538;48.884;8.696;2022-12-18T07:20:42;-5.30;99.90
22742;DHT22;11538;48.884;8.696;2022-12-18T07:23:11;-5.30;99.90
22742;DHT22;11538;48.884;8.696;2022-12-18T07:25:38;-5.40;99.90
22742;DHT22;11538;48.884;8.696;2022-12-18T07:28:05;-5.40;99.90
22742;DHT22;11538;48.884;8.696;2022-12-18T07:30:32;-5.40;99.90
22742;DHT22;11538;48.884;8.696;2022-12-18T07:32:59;-5.40;99.90
22742;DHT22;11538;48.884;8.696;2022-12-18T07:35:26;-5.50;99.90
22742;DHT22;11538;48.884;8.696;2022-12-18T07:37:53;-5.50;99.90
22742;DHT22;11538;48.884;8.696;2022-12-18T07:40:20;-5.50;99.90
22742;DHT22;11538;48.884;8.696;2022-12-18T07:42:46;-5.50;99.90
22742;DHT22;11538;48.884;8.696;2022-12-18T07:45:13;-5.50;99.90
22742;DHT22;11538;48.884;8.696;2022-12-18T07:47:40;-5.60;99.90
22742;DHT22;11538;48.884;8.696;2022-12-18T07:50:09;-5.60;99.90
22742;DHT22;11538;48.884;8.696;2022-12-18T07:52:35;-5.60;99.90
22742;DHT22;11538;48.884;8.696;2022-12-18T07:55:02;-5.60;99.90
22742;DHT22;11538;48.884;8.696;2022-12-18T07:57:29;-5.60;99.90
22742;DHT22;11538;48.884;8.696;2022-12-18T08:00:15;-5.60;99.90
22742;DHT22;11538;48.884;8.696;2022-12-18T08:02:42;-5.60;99.90
22742;DHT22;11538;48.884;8.696;2022-12-18T08:05:09;-5.60;99.90
22742;DHT22;11538;48.884;8.696;2022-12-18T08:07:36;-5.60;99.90
22742;DHT22;11538;48.884;8.696;2022-12-18T08:10:03;-5.60;99.90
22742;DHT22;11538;48.884;8.696;2022-12-18T08:12:31;-5.60;99.90
22742;DHT22;11538;48.884;8.696;2022-12-18T08:14:58;-5.60;99.90
22742;DHT22;11538;48.884;8.696;2022-12-18T08:17:25;-5.60;99.90
22742;DHT22;11538;48.884;8.696;2022-12-18T08:19:52;-5.50;99.90
22742;DHT22;11538;48.884;8.696;2022-12-18T08:22:19;-5.50;99.90
22742;DHT22;11538;48.884;8.696;2022-12-18T08:24:45;-5.50;99.90
22742;DHT22;11538;48.884;8.696;2022-12-18T08:27:12;-5.50;99.90
22742;DHT22;11538;48.884;8.696;2022-12-18T08:29:55;-5.50;99.90
22742;DHT22;11538;48.884;8.696;2022-12-18T08:32:23;-5.50;1.00
22742;DHT22;11538;48.884;8.696;2022-12-18T08:34:50;-5.50;99.90
22742;DHT22;11538;48.884;8.696;2022-12-18T08:37:17;-5.50;99.90
22742;DHT22;11538;48.884;8.696;2022-12-18T08:39:43;-5.50;99.90
22742;DHT22;11538;48.884;8.696;2022-12-18T08:42:10;-5.50;99.90
22742;DHT22;11538;48.884;8.696;2022-12-18T08:44:56;-5.50;99.90
22742;DHT22;11538;48.884;8.696;2022-12-18T08:47:23;-5.40;99.90
22742;DHT22;11538;48.884;8.696;2022-12-18T08:49:50;-5.40;99.90
22742;DHT22;11538;48.884;8.696;2022-12-18T08:52:17;-5.30;99.90
22742;DHT22;11538;48.884;8.696;2022-12-18T08:54:43;-5.20;99.90
22742;DHT22;11538;48.884;8.696;2022-12-18T08:57:10;-5.20;99.90
22742;DHT22;11538;48.884;8.696;2022-12-18T08:59:37;-5.10;99.90
22742;DHT22;11538;48.884;8.696;2022-12-18T09:02:04;-5.00;99.90
22742;DHT22;11538;48.884;8.696;2022-12-18T09:04:31;-5.00;99.90
22742;DHT22;11538;48.884;8.696;2022-12-18T09:06:57;-4.90;1.00
22742;DHT22;11538;48.884;8.696;2022-12-18T09:09:24;-4.80;99.90
22742;DHT22;11538;48.884;8.696;2022-12-18T09:11:51;-4.70;99.90
22742;DHT22;11538;48.884;8.696;2022-12-18T09:14:18;-4.60;99.90
22742;DHT22;11538;48.884;8.696;2022-12-18T09:16:44;-4.50;99.90
22742;DHT22;11538;48.884;8.696;2022-12-18T09:19:11;-4.50;99.90
22742;DHT22;11538;48.884;8.696;2022-12-18T09:21:38;-4.40;99.90
22742;DHT22;11538;48.884;8.696;2022-12-18T09:24:13;-4.30;99.90
22742;DHT22;11538;48.884;8.696;2022-12-18T09:26:41;-4.20;99.90
22742;DHT22;11538;48.884;8.696;2022-12-18T09:29:12;-4.10;99.90
22742;DHT22;11538;48.884;8.696;2022-12-18T09:31:39;-4.00;99.90
22742;DHT22;11538;48.884;8.696;2022-12-18T09:34:06;-4.00;99.90
22742;DHT22;11538;48.884;8.696;2022-12-18T09:36:33;-3.80;99.90
22742;DHT22;11538;48.884;8.696;2022-12-18T09:39:00;-3.70;1.00
22742;DHT22;11538;48.884;8.696;2022-12-18T09:46:57;-3.50;99.90
22742;DHT22;11538;48.884;8.696;2022-12-18T09:49:31;-3.30;99.90
22742;DHT22;11538;48.884;8.696;2022-12-18T09:52:11;-3.20;99.90
22742;DHT22;11538;48.884;8.696;2022-12-18T09:54:43;-3.10;99.90
22742;DHT22;11538;48.884;8.696;2022-12-18T09:57:32;-3.00;99.90
22742;DHT22;11538;48.884;8.696;2022-12-18T10:00:04;-3.00;99.90
22742;DHT22;11538;48.884;8.696;2022-12-18T10:02:40;-2.90;99.90
22742;DHT22;11538;48.884;8.696;2022-12-18T10:05:11;-2.80;99.90
22742;DHT22;11538;48.884;8.696;2022-12-18T10:10:26;-2.70;99.90
22742;DHT22;11538;48.884;8.696;2022-12-18T10:18:42;-2.40;99.90
22742;DHT22;11538;48.884;8.696;2022-12-18T10:21:19;-2.30;99.90
22742;DHT22;11538;48.884;8.696;2022-12-18T10:24:02;-2.20;99.90
22742;DHT22;11538;48.884;8.696;2022-12-18T10:26:42;-2.10;99.90
22742;DHT22;11538;48.884;8.696;2022-12-18T10:29:14;-2.10;99.90
22742;DHT22;11538;48.884;8.696;2022-12-18T10:31:42;-2.00;99.90
22742;DHT22;11538;48.884;8.696;2022-12-18T10:34:10;-2.00;99.90
22742;DHT22;11538;48.884;8.696;2022-12-18T10:36:37;-1.90;99.90
22742;DHT22;11538;48.884;8.696;2022-12-18T10:39:15;-1.90;99.90
22742;DHT22;11538;48.884;8.696;2022-12-18T10:41:44;-1.90;99.90
22742;DHT22;11538;48.884;8.696;2022-12-18T10:44:12;-1.90;99.90
22742;DHT22;11538;48.884;8.696;2022-12-18T10:46:47;-1.80;99.90
22742;DHT22;11538;48.884;8.696;2022-12-18T10:49:21;-1.80;99.90
22742;DHT22;11538;48.884;8.696;2022-12-18T10:51:50;-1.70;99.90
22742;DHT22;11538;48.884;8.696;2022-12-18T10:54:20;-1.60;99.90
22742;DHT22;11538;48.884;8.696;2022-12-18T10:56:49;-1.60;99.90
22742;DHT22;11538;48.884;8.696;2022-12-18T10:59:16;-1.50;99.90
22742;DHT22;11538;48.884;8.696;2022-12-18T11:01:48;-1.50;99.90
22742;DHT22;11538;48.884;8.696;2022-12-18T11:04:28;-1.40;99.90
22742;DHT22;11538;48.884;8.696;2022-12-18T11:07:00;-1.30;99.90
22742;DHT22;11538;48.884;8.696;2022-12-18T11:09:33;-1.20;99.90
22742;DHT22;11538;48.884;8.696;2022-12-18T11:12:02;-1.20;99.90
22742;DHT22;11538;48.884;8.696;2022-12-18T11:14:46;-1.10;99.90
22742;DHT22;11538;48.884;8.696;2022-12-18T11:17:28;-1.10;99.90
22742;DHT22;11538;48.884;8.696;2022-12-18T11:20:09;-1.00;99.90
22742;DHT22;11538;48.884;8.696;2022-12-18T11:22:59;-1.00;99.90
22742;DHT22;11538;48.884;8.696;2022-12-18T11:25:31;-0.90;99.90
22742;DHT22;11538;48.884;8.696;2022-12-18T11:28:02;-0.80;99.90
22742;DHT22;11538;48.884;8.696;2022-12-18T11:31:35;-0.80;99.90
22742;DHT22;11538;48.884;8.696;2022-12-18T11:33:54;-0.70;99.90
22742;DHT22;11538;48.884;8.696;2022-12-18T11:36:47;-0.60;99.90
22742;DHT22;11538;48.884;8.696;2022-12-18T11:39:19;-0.60;99.90
22742;DHT22;11538;48.884;8.696;2022-12-18T11:41:58;-0.50;99.90
22742;DHT22;11538;48.884;8.696;2022-12-18T11:44:58;-0.50;99.90
22742;DHT22;11538;48.884;8.696;2022-12-18T11:47:31;-0.40;99.90
22742;DHT22;11538;48.884;8.696;2022-12-18T11:50:02;-0.40;99.90
22742;DHT22;11538;48.884;8.696;2022-12-18T11:52:38;-0.30;99.90
22742;DHT22;11538;48.884;8.696;2022-12-18T11:55:11;-0.20;99.90
22742;DHT22;11538;48.884;8.696;2022-12-18T11:57:53;0.00;99.90
22742;DHT22;11538;48.884;8.696;2022-12-18T12:00:27;0.30;99.90
22742;DHT22;11538;48.884;8.696;2022-12-18T12:13:40;1.40;99.90
22742;DHT22;11538;48.884;8.696;2022-12-18T12:19:10;1.50;99.90
22742;DHT22;11538;48.884;8.696;2022-12-18T12:21:55;1.50;99.90
22742;DHT22;11538;48.884;8.696;2022-12-18T12:30:09;1.50;99.90
22742;DHT22;11538;48.884;8.696;2022-12-18T12:35:47;1.40;99.90
22742;DHT22;11538;48.884;8.696;2022-12-18T12:38:22;1.40;99.90
22742;DHT22;11538;48.884;8.696;2022-12-18T12:40:57;1.40;99.90
22742;DHT22;11538;48.884;8.696;2022-12-18T12:43:33;1.30;99.90
22742;DHT22;11538;48.884;8.696;2022-12-18T12:46:17;1.30;99.90
22742;DHT22;11538;48.884;8.696;2022-12-18T12:49:01;1.40;99.90
22742;DHT22;11538;48.884;8.696;2022-12-18T12:51:34;1.30;99.90
22742;DHT22;11538;48.884;8.696;2022-12-18T12:54:05;1.40;99.90
22742;DHT22;11538;48.884;8.696;2022-12-18T12:59:27;1.40;99.90
22742;DHT22;11538;48.884;8.696;2022-12-18T13:08:22;1.30;99.90
22742;DHT22;11538;48.884;8.696;2022-12-18T13:10:34;1.30;99.90
22742;DHT22;11538;48.884;8.696;2022-12-18T13:13:05;1.20;99.90
22742;DHT22;11538;48.884;8.696;2022-12-18T13:15:49;1.20;99.90
22742;DHT22;11538;48.884;8.696;2022-12-18T13:18:32;1.10;99.90
22742;DHT22;11538;48.884;8.696;2022-12-18T13:23:30;1.10;99.90
22742;DHT22;11538;48.884;8.696;2022-12-18T13:31:00;1.10;99.90
22742;DHT22;11538;48.884;8.696;2022-12-18T13:36:03;1.10;99.90
22742;DHT22;11538;48.884;8.696;2022-12-18T13:38:40;1.10;99.90
22742;DHT22;11538;48.884;8.696;2022-12-18T13:43:43;1.00;99.90
22742;DHT22;11538;48.884;8.696;2022-12-18T13:51:22;1.00;99.90
22742;DHT22;11538;48.884;8.696;2022-12-18T13:53:51;0.90;99.90
22742;DHT22;11538;48.884;8.696;2022-12-18T13:56:24;0.90;99.90
22742;DHT22;11538;48.884;8.696;2022-12-18T13:59:11;0.90;99.90
22742;DHT22;11538;48.884;8.696;2022-12-18T14:01:47;0.90;99.90
22742;DHT22;11538;48.884;8.696;2022-12-18T14:06:52;0.90;99.90
22742;DHT22;11538;48.884;8.696;2022-12-18T14:09:26;0.80;99.90
22742;DHT22;11538;48.884;8.696;2022-12-18T14:11:58;0.80;99.90
22742;DHT22;11538;48.884;8.696;2022-12-18T14:14:45;0.80;99.90
22742;DHT22;11538;48.884;8.696;2022-12-18T14:17:15;0.70;99.90
22742;DHT22;11538;48.884;8.696;2022-12-18T14:19:44;0.70;99.90
22742;DHT22;11538;48.884;8.696;2022-12-18T14:22:14;0.60;99.90
22742;DHT22;11538;48.884;8.696;2022-12-18T14:25:10;0.60;99.90
22742;DHT22;11538;48.884;8.696;2022-12-18T14:27:43;0.50;99.90
22742;DHT22;11538;48.884;8.696;2022-12-18T14:30:46;0.50;99.90
22742;DHT22;11538;48.884;8.696;2022-12-18T14:33:13;0.40;99.90
22742;DHT22;11538;48.884;8.696;2022-12-18T14:35:43;0.30;99.90
22742;DHT22;11538;48.884;8.696;2022-12-18T14:38:26;0.30;99.90
22742;DHT22;11538;48.884;8.696;2022-12-18T14:43:44;0.20;99.90
22742;DHT22;11538;48.884;8.696;2022-12-18T14:46:33;0.10;99.90
22742;DHT22;11538;48.884;8.696;2022-12-18T14:49:47;0.10;99.90
22742;DHT22;11538;48.884;8.696;2022-12-18T14:52:03;0.00;99.90
22742;DHT22;11538;48.884;8.696;2022-12-18T14:54:33;0.00;99.90
22742;DHT22;11538;48.884;8.696;2022-12-18T14:57:22;-0.10;99.90
22742;DHT22;11538;48.884;8.696;2022-12-18T14:59:51;-0.10;99.90
22742;DHT22;11538;48.884;8.696;2022-12-18T15:02:22;-0.10;99.90
22742;DHT22;11538;48.884;8.696;2022-12-18T15:05:02;-0.20;99.90
22742;DHT22;11538;48.884;8.696;2022-12-18T15:07:51;-0.20;99.90
22742;DHT22;11538;48.884;8.696;2022-12-18T15:10:21;-0.30;99.90
22742;DHT22;11538;48.884;8.696;2022-12-18T15:12:50;-0.30;99.90
22742;DHT22;11538;48.884;8.696;2022-12-18T15:23:21;-0.50;99.90
22742;DHT22;11538;48.884;8.696;2022-12-18T15:26:03;-0.50;99.90
22742;DHT22;11538;48.884;8.696;2022-12-18T15:33:39;-0.60;99.90
22742;DHT22;11538;48.884;8.696;2022-12-18T15:36:09;-0.60;99.90
22742;DHT22;11538;48.884;8.696;2022-12-18T15:38:37;-0.60;99.90
22742;DHT22;11538;48.884;8.696;2022-12-18T15:41:04;-0.70;99.90
22742;DHT22;11538;48.884;8.696;2022-12-18T15:43:38;-0.70;99.90
22742;DHT22;11538;48.884;8.696;2022-12-18T15:46:11;-0.70;99.90
22742;DHT22;11538;48.884;8.696;2022-12-18T15:48:43;-0.70;99.90
22742;DHT22;11538;48.884;8.696;2022-12-18T15:51:16;-0.70;99.90
22742;DHT22;11538;48.884;8.696;2022-12-18T15:53:50;-0.70;99.90
22742;DHT22;11538;48.884;8.696;2022-12-18T15:56:20;-0.70;99.90
22742;DHT22;11538;48.884;8.696;2022-12-18T15:59:24;-0.70;99.90
22742;DHT22;11538;48.884;8.696;2022-12-18T16:01:56;-0.70;99.90
22742;DHT22;11538;48.884;8.696;2022-12-18T16:04:23;-0.70;99.90
22742;DHT22;11538;48.884;8.696;2022-12-18T16:06:51;-0.70;99.90
22742;DHT22;11538;48.884;8.696;2022-12-18T16:09:38;-0.70;99.90
22742;DHT22;11538;48.884;8.696;2022-12-18T16:12:06;-0.70;99.90
22742;DHT22;11538;48.884;8.696;2022-12-18T16:14:40;-0.70;99.90
22742;DHT22;11538;48.884;8.696;2022-12-18T16:17:09;-0.70;99.90
22742;DHT22;11538;48.884;8.696;2022-12-18T16:19:37;-0.70;99.90
22742;DHT22;11538;48.884;8.696;2022-12-18T16:22:04;-0.70;99.90
22742;DHT22;11538;48.884;8.696;2022-12-18T16:24:32;-0.60;99.90
22742;DHT22;11538;48.884;8.696;2022-12-18T16:27:02;-0.60;99.90
22742;DHT22;11538;48.884;8.696;2022-12-18T16:29:29;-0.70;99.90
22742;DHT22;11538;48.884;8.696;2022-12-18T16:31:57;-0.70;99.90
22742;DHT22;11538;48.884;8.696;2022-12-18T16:34:26;-0.70;99.90
22742;DHT22;11538;48.884;8.696;2022-12-18T16:37:05;-0.70;99.90
22742;DHT22;11538;48.884;8.696;2022-12-18T16:39:34;-0.70;99.90
22742;DHT22;11538;48.884;8.696;2022-12-18T16:42:06;-0.70;99.90
22742;DHT22;11538;48.884;8.696;2022-12-18T16:44:43;-0.70;99.90
22742;DHT22;11538;48.884;8.696;2022-12-18T16:47:11;-0.70;99.90
22742;DHT22;11538;48.884;8.696;2022-12-18T16:49:41;-0.60;99.90
22742;DHT22;11538;48.884;8.696;2022-12-18T16:52:10;-0.60;99.90
22742;DHT22;11538;48.884;8.696;2022-12-18T16:54:38;-0.60;99.90
22742;DHT22;11538;48.884;8.696;2022-12-18T16:57:05;-0.60;99.90
22742;DHT22;11538;48.884;8.696;2022-12-18T16:59:33;-0.60;99.90
22742;DHT22;11538;48.884;8.696;2022-12-18T17:02:04;-0.60;99.90
22742;DHT22;11538;48.884;8.696;2022-12-18T17:04:31;-0.60;99.90
22742;DHT22;11538;48.884;8.696;2022-12-18T17:06:59;-0.60;99.90
22742;DHT22;11538;48.884;8.696;2022-12-18T17:09:25;-0.60;99.90
22742;DHT22;11538;48.884;8.696;2022-12-18T17:11:57;-0.60;99.90
22742;DHT22;11538;48.884;8.696;2022-12-18T17:14:30;-0.60;99.90
22742;DHT22;11538;48.884;8.696;2022-12-18T17:16:58;-0.60;99.90
22742;DHT22;11538;48.884;8.696;2022-12-18T17:19:45;-0.60;99.90
22742;DHT22;11538;48.884;8.696;2022-12-18T17:22:12;-0.70;99.90
22742;DHT22;11538;48.884;8.696;2022-12-18T17:24:39;-0.70;99.90
22742;DHT22;11538;48.884;8.696;2022-12-18T17:27:06;-0.70;99.90
22742;DHT22;11538;48.884;8.696;2022-12-18T17:29:34;-0.70;99.90
22742;DHT22;11538;48.884;8.696;2022-12-18T17:32:01;-0.70;99.90
22742;DHT22;11538;48.884;8.696;2022-12-18T17:34:28;-0.70;99.90
22742;DHT22;11538;48.884;8.696;2022-12-18T17:36:56;-0.70;99.90
22742;DHT22;11538;48.884;8.696;2022-12-18T17:39:26;-0.70;99.90
22742;DHT22;11538;48.884;8.696;2022-12-18T17:41:54;-0.70;99.90
22742;DHT22;11538;48.884;8.696;2022-12-18T17:44:22;-0.80;99.90
22742;DHT22;11538;48.884;8.696;2022-12-18T17:46:52;-0.80;99.90
22742;DHT22;11538;48.884;8.696;2022-12-18T17:49:19;-0.80;99.90
22742;DHT22;11538;48.884;8.696;2022-12-18T17:51:47;-0.80;99.90
22742;DHT22;11538;48.884;8.696;2022-12-18T17:54:14;-0.80;99.90